createdAt,value
2022-10-05T00:01:35.472Z,10.10
2022-10-05T00:04:23.835Z,10.20
2022-10-05T00:07:12.622Z,10.10
2022-10-05T00:09:41.308Z,10.20
2022-10-05T00:12:22.414Z,10.30
2022-10-05T00:15:00.182Z,10.30
2022-10-05T00:17:30.787Z,10.40
2022-10-05T00:19:58.409Z,10.50
2022-10-05T00:22:34.120Z,10.50
2022-10-05T00:25:13.182Z,10.60
2022-10-05T00:27:41.521Z,10.70
2022-10-05T00:30:21.782Z,10.70
2022-10-05T00:32:50.453Z,10.70
2022-10-05T00:35:20.531Z,10.80
2022-10-05T00:37:55.841Z,10.80
2022-10-05T00:41:02.488Z,10.80
2022-10-05T00:44:49.364Z,10.90
2022-10-05T00:48:05.051Z,10.90
2022-10-05T00:50:44.609Z,10.90
2022-10-05T00:53:49.413Z,10.80
2022-10-05T00:56:53.246Z,10.90
2022-10-05T01:00:09.990Z,10.90
2022-10-05T01:03:26.218Z,10.90
2022-10-05T01:06:55.661Z,10.90
2022-10-05T01:10:05.683Z,10.90
2022-10-05T01:13:09.124Z,10.90
2022-10-05T01:16:07.569Z,11.00
2022-10-05T01:18:53.725Z,11.00
2022-10-05T01:21:30.762Z,11.10
2022-10-05T01:24:34.306Z,11.20
2022-10-05T01:27:53.569Z,11.30
2022-10-05T01:30:23.732Z,11.40
2022-10-05T01:33:52.427Z,11.50
2022-10-05T01:37:03.165Z,11.50
2022-10-05T01:40:19.337Z,11.60
2022-10-05T01:43:47.347Z,11.60
2022-10-05T01:46:53.241Z,11.80
2022-10-05T01:50:18.492Z,11.80
2022-10-05T01:53:25.126Z,11.80
2022-10-05T01:56:30.436Z,11.80
2022-10-05T01:59:57.549Z,11.80
2022-10-05T02:02:29.564Z,11.70
2022-10-05T02:05:24.467Z,11.70
2022-10-05T02:08:08.316Z,11.80
2022-10-05T02:10:51.931Z,11.80
2022-10-05T02:13:55.455Z,11.70
2022-10-05T02:16:41.175Z,11.80
2022-10-05T02:19:38.313Z,11.80
2022-10-05T02:22:23.424Z,11.80
2022-10-05T02:25:03.702Z,11.80
2022-10-05T02:27:47.951Z,11.80
2022-10-05T02:30:19.836Z,11.90
2022-10-05T02:33:13.266Z,12.00
2022-10-05T02:35:40.951Z,12.10
2022-10-05T02:39:06.498Z,12.10
2022-10-05T02:42:24.221Z,12.20
2022-10-05T02:45:53.018Z,12.20
2022-10-05T02:49:24.518Z,12.20
2022-10-05T02:52:21.959Z,12.30
2022-10-05T02:55:17.201Z,12.20
2022-10-05T02:58:10.494Z,12.20
2022-10-05T03:01:25.592Z,12.20
2022-10-05T03:04:39.652Z,12.10
2022-10-05T03:07:41.304Z,12.20
2022-10-05T03:10:29.326Z,12.10
2022-10-05T03:13:48.848Z,12.20
2022-10-05T03:17:22.563Z,12.10
2022-10-05T03:20:49.908Z,12.10
2022-10-05T03:24:17.526Z,12.10
2022-10-05T03:27:15.130Z,12.20
2022-10-05T03:30:15.943Z,12.20
2022-10-05T03:33:42.047Z,12.20
2022-10-05T03:36:42.879Z,12.40
2022-10-05T03:39:30.815Z,12.50
2022-10-05T03:43:03.565Z,12.60
2022-10-05T03:45:48.392Z,12.70
2022-10-05T03:49:23.548Z,12.80
2022-10-05T03:52:10.003Z,12.80
2022-10-05T03:55:37.162Z,12.90
2022-10-05T03:58:29.665Z,12.90
2022-10-05T04:01:13.491Z,13.00
2022-10-05T04:03:55.105Z,13.00
2022-10-05T04:06:34.647Z,13.10
2022-10-05T04:09:42.154Z,13.00
2022-10-05T04:12:47.007Z,13.00
2022-10-05T04:15:45.782Z,13.10
2022-10-05T04:18:40.239Z,13.00
2022-10-05T04:21:27.169Z,13.00
2022-10-05T04:24:27.682Z,13.00
2022-10-05T04:27:11.083Z,13.00
2022-10-05T04:30:05.283Z,13.10
2022-10-05T04:32:53.895Z,13.10
2022-10-05T04:36:06.429Z,13.20
2022-10-05T04:39:23.924Z,13.20
2022-10-05T04:42:19.910Z,13.10
2022-10-05T04:45:23.903Z,13.20
2022-10-05T04:48:45.945Z,13.20
2022-10-05T04:51:58.891Z,13.20
2022-10-05T04:55:31.230Z,13.20
2022-10-05T04:59:25.948Z,13.20
2022-10-05T05:02:48.164Z,13.20
2022-10-05T05:06:16.838Z,13.20
2022-10-05T05:10:06.029Z,13.20
2022-10-05T05:13:10.147Z,13.30
2022-10-05T05:16:05.561Z,13.20
2022-10-05T05:19:42.674Z,13.20
2022-10-05T05:22:57.887Z,13.20
2022-10-05T05:26:25.772Z,13.20
2022-10-05T05:29:47.892Z,13.10
2022-10-05T05:33:15.292Z,13.20
2022-10-05T05:36:44.102Z,13.20
2022-10-05T05:40:12.425Z,13.10
2022-10-05T05:43:02.824Z,13.10
2022-10-05T05:45:52.977Z,13.20
2022-10-05T05:48:47.382Z,13.20
2022-10-05T05:51:43.413Z,13.30
2022-10-05T05:54:39.376Z,13.30
2022-10-05T05:58:04.238Z,13.40
2022-10-05T06:01:46.022Z,13.40
2022-10-05T06:04:43.820Z,13.50
2022-10-05T06:07:30.323Z,13.50
2022-10-05T06:10:46.062Z,13.50
2022-10-05T06:13:40.377Z,13.60
2022-10-05T06:16:59.966Z,13.70
2022-10-05T06:19:34.801Z,13.70
2022-10-05T06:22:28.137Z,13.80
2022-10-05T06:25:13.708Z,13.80
2022-10-05T06:28:13.837Z,13.80
2022-10-05T06:31:56.418Z,13.90
2022-10-05T06:35:38.501Z,14.00
2022-10-05T06:38:48.825Z,14.10
2022-10-05T06:41:48.195Z,14.30
2022-10-05T06:44:46.489Z,14.40
2022-10-05T06:48:37.068Z,14.40
2022-10-05T06:51:50.484Z,14.40
2022-10-05T06:55:13.938Z,14.60
2022-10-05T06:58:30.688Z,14.50
2022-10-05T07:01:56.440Z,14.50
2022-10-05T07:04:48.678Z,14.50
2022-10-05T07:08:10.691Z,14.50
2022-10-05T07:11:29.930Z,14.50
2022-10-05T07:14:58.558Z,14.40
2022-10-05T07:18:24.891Z,14.50
2022-10-05T07:21:23.157Z,14.60
2022-10-05T07:24:33.906Z,14.60
2022-10-05T07:27:24.037Z,14.60
2022-10-05T07:30:14.966Z,14.50
2022-10-05T07:33:18.804Z,14.60
2022-10-05T07:36:37.531Z,14.60
2022-10-05T07:39:55.344Z,14.50
2022-10-05T07:43:22.480Z,14.50
2022-10-05T07:46:03.785Z,14.50
2022-10-05T07:49:16.990Z,14.60
2022-10-05T07:52:16.132Z,14.70
2022-10-05T07:55:20.128Z,14.70
2022-10-05T07:58:29.819Z,14.70
2022-10-05T08:01:38.559Z,14.80
2022-10-05T08:04:21.762Z,14.90
2022-10-05T08:07:11.807Z,15.00
2022-10-05T08:11:09.080Z,15.10
2022-10-05T08:14:05.284Z,15.20
2022-10-05T08:16:39.104Z,15.20
2022-10-05T08:19:52.815Z,15.20
2022-10-05T08:22:46.170Z,15.40
2022-10-05T08:25:55.537Z,15.30
2022-10-05T08:28:41.599Z,15.40
2022-10-05T08:31:41.342Z,15.50
2022-10-05T08:35:09.310Z,15.50
2022-10-05T08:37:44.556Z,15.60
2022-10-05T08:41:12.458Z,15.50
2022-10-05T08:44:42.059Z,15.60
2022-10-05T08:48:07.693Z,15.60
2022-10-05T08:51:42.283Z,15.70
2022-10-05T08:55:09.245Z,15.80
2022-10-05T08:58:32.346Z,15.90
2022-10-05T09:01:28.200Z,15.90
2022-10-05T09:05:14.734Z,16.10
2022-10-05T09:08:28.191Z,16.30
2022-10-05T09:11:26.574Z,16.60
2022-10-05T09:14:52.675Z,16.40
2022-10-05T09:19:13.633Z,16.40
2022-10-05T09:22:30.312Z,16.70
2022-10-05T09:25:36.101Z,16.70
2022-10-05T09:28:49.659Z,16.60
2022-10-05T09:32:04.401Z,16.60
2022-10-05T09:35:06.537Z,16.80
2022-10-05T09:38:11.700Z,16.80
2022-10-05T09:41:31.781Z,16.80
2022-10-05T09:44:36.389Z,16.70
2022-10-05T09:47:56.699Z,16.90
2022-10-05T09:50:51.251Z,17.10
2022-10-05T09:53:44.323Z,17.10
2022-10-05T09:57:19.069Z,16.90
2022-10-05T10:00:29.143Z,16.80
2022-10-05T10:04:01.881Z,17.10
2022-10-05T10:07:05.078Z,17.30
2022-10-05T10:10:15.993Z,17.40
2022-10-05T10:13:57.000Z,17.50
2022-10-05T10:16:49.504Z,17.80
2022-10-05T10:20:05.786Z,17.80
2022-10-05T10:23:27.483Z,17.70
2022-10-05T10:26:35.111Z,17.70
2022-10-05T10:29:43.474Z,17.70
2022-10-05T10:33:15.866Z,17.80
2022-10-05T10:36:39.333Z,17.80
2022-10-05T10:40:12.699Z,18.00
2022-10-05T10:43:51.927Z,18.30
2022-10-05T10:47:28.601Z,18.00
2022-10-05T10:50:57.429Z,18.00
2022-10-05T10:54:02.673Z,18.20
2022-10-05T10:56:57.111Z,18.10
2022-10-05T11:00:08.679Z,17.90
2022-10-05T11:03:21.003Z,18.40
2022-10-05T11:06:54.670Z,18.30
2022-10-05T11:10:02.225Z,18.40
2022-10-05T11:13:40.899Z,18.10
2022-10-05T11:17:23.714Z,18.10
2022-10-05T11:20:37.857Z,18.30
2022-10-05T11:23:57.817Z,18.70
2022-10-05T11:27:11.397Z,18.70
2022-10-05T11:30:34.762Z,18.80
2022-10-05T11:34:23.245Z,18.60
2022-10-05T11:37:40.158Z,18.70
2022-10-05T11:41:37.242Z,18.40
2022-10-05T11:44:51.960Z,18.50
2022-10-05T11:48:00.202Z,18.70
2022-10-05T11:51:19.598Z,19.10
2022-10-05T11:55:09.784Z,19.00
2022-10-05T11:57:58.910Z,19.00
2022-10-05T12:00:46.482Z,19.10
2022-10-05T12:04:27.598Z,19.00
2022-10-05T12:07:43.202Z,19.10
2022-10-05T12:11:05.248Z,18.90
2022-10-05T12:14:03.253Z,18.70
2022-10-05T12:17:43.742Z,18.90
2022-10-05T12:20:55.263Z,19.00
2022-10-05T12:23:47.730Z,19.10
2022-10-05T12:26:40.766Z,19.00
2022-10-05T12:29:55.004Z,19.00
2022-10-05T12:33:22.738Z,19.10
2022-10-05T12:36:26.359Z,19.10
2022-10-05T12:39:24.877Z,19.10
2022-10-05T12:42:52.013Z,19.20
2022-10-05T12:46:17.938Z,19.20
2022-10-05T12:49:08.009Z,19.20
2022-10-05T12:52:02.586Z,19.10
2022-10-05T12:55:13.197Z,19.10
2022-10-05T12:58:31.055Z,19.00
2022-10-05T13:01:55.962Z,19.10
2022-10-05T13:04:54.848Z,19.10
2022-10-05T13:08:39.742Z,19.10
2022-10-05T13:11:38.373Z,19.20
2022-10-05T13:14:49.192Z,19.10
2022-10-05T13:18:50.807Z,19.20
2022-10-05T13:21:57.533Z,19.20
2022-10-05T13:25:01.849Z,19.30
2022-10-05T13:28:17.262Z,19.40
2022-10-05T13:31:18.863Z,19.50
2022-10-05T13:34:22.258Z,19.50
2022-10-05T13:38:02.978Z,19.40
2022-10-05T13:41:03.436Z,19.60
2022-10-05T13:44:12.647Z,19.60
2022-10-05T13:47:25.449Z,19.60
2022-10-05T13:50:51.417Z,19.70
2022-10-05T13:54:32.290Z,19.80
2022-10-05T13:57:32.887Z,19.90
2022-10-05T14:00:22.758Z,19.90
2022-10-05T14:03:00.996Z,19.90
2022-10-05T14:05:32.235Z,19.90
2022-10-05T14:08:03.007Z,20.00
2022-10-05T14:10:44.774Z,20.10
2022-10-05T14:13:49.094Z,20.20
2022-10-05T14:16:26.300Z,20.30
2022-10-05T14:19:05.927Z,20.20
2022-10-05T14:22:12.262Z,20.30
2022-10-05T14:25:08.241Z,20.20
2022-10-05T14:28:12.081Z,20.30
2022-10-05T14:30:40.961Z,20.20
2022-10-05T14:33:17.411Z,20.30
2022-10-05T14:35:55.465Z,20.30
2022-10-05T14:38:55.915Z,20.30
2022-10-05T14:41:27.691Z,20.30
2022-10-05T14:47:29.850Z,20.40
2022-10-05T14:50:30.964Z,20.40
2022-10-05T14:53:25.881Z,20.40
2022-10-05T14:56:08.316Z,20.40
2022-10-05T14:59:22.359Z,20.40
2022-10-05T15:02:33.285Z,20.40
2022-10-05T15:05:16.487Z,20.30
2022-10-05T15:07:52.434Z,20.30
2022-10-05T15:11:20.248Z,20.40
2022-10-05T15:13:50.086Z,20.40
2022-10-05T15:16:41.145Z,20.40
2022-10-05T15:19:48.119Z,20.40
2022-10-05T15:23:23.800Z,20.40
2022-10-05T15:26:37.202Z,20.30
2022-10-05T15:29:51.922Z,20.20
2022-10-05T15:32:42.215Z,20.20
2022-10-05T15:35:45.585Z,20.30
2022-10-05T15:38:37.407Z,20.40
2022-10-05T15:41:30.180Z,20.60
2022-10-05T15:45:05.516Z,20.70
2022-10-05T15:48:20.037Z,20.60
2022-10-05T15:51:18.088Z,20.50
2022-10-05T15:54:36.245Z,20.40
2022-10-05T15:57:57.798Z,20.30
2022-10-05T16:00:27.903Z,20.30
2022-10-05T16:03:49.393Z,20.30
2022-10-05T16:07:17.710Z,20.30
2022-10-05T16:10:23.551Z,20.40
2022-10-05T16:13:45.911Z,20.20
2022-10-05T16:16:42.264Z,20.20
2022-10-05T16:20:25.172Z,20.10
2022-10-05T16:23:18.705Z,20.00
2022-10-05T16:27:00.310Z,19.80
2022-10-05T16:30:08.755Z,19.70
2022-10-05T16:32:50.250Z,19.60
2022-10-05T16:35:48.488Z,19.50
2022-10-05T16:39:14.294Z,19.50
2022-10-05T16:42:34.843Z,19.50
2022-10-05T16:46:10.230Z,19.40
2022-10-05T16:49:03.232Z,19.40
2022-10-05T16:52:03.070Z,19.20
2022-10-05T16:54:58.686Z,19.20
2022-10-05T16:57:48.526Z,19.00
2022-10-05T17:01:10.544Z,18.90
2022-10-05T17:05:02.663Z,18.90
2022-10-05T17:08:29.538Z,18.80
2022-10-05T17:11:17.683Z,18.60
2022-10-05T17:14:54.404Z,18.40
2022-10-05T17:18:13.224Z,18.10
2022-10-05T17:21:18.161Z,17.90
2022-10-05T17:24:12.508Z,17.80
2022-10-05T17:27:50.966Z,17.80
2022-10-05T17:31:17.228Z,17.90
2022-10-05T17:34:36.592Z,18.00
2022-10-05T17:37:28.514Z,18.10
2022-10-05T17:39:59.150Z,18.00
2022-10-05T17:42:26.892Z,18.00
2022-10-05T17:45:21.603Z,18.00
2022-10-05T17:48:08.543Z,17.90
2022-10-05T17:51:05.220Z,17.90
2022-10-05T17:54:09.001Z,17.90
2022-10-05T17:56:48.645Z,17.90
2022-10-05T17:59:56.938Z,17.80
2022-10-05T18:02:43.088Z,17.90
2022-10-05T18:05:15.235Z,17.80
2022-10-05T18:07:51.015Z,17.80
2022-10-05T18:10:30.744Z,17.70
2022-10-05T18:13:04.214Z,17.80
2022-10-05T18:15:32.050Z,17.80
2022-10-05T18:18:33.136Z,17.80
2022-10-05T18:21:35.783Z,17.80
2022-10-05T18:24:33.371Z,17.80
2022-10-05T18:28:04.144Z,17.80
2022-10-05T18:31:22.201Z,17.80
2022-10-05T18:34:26.469Z,17.80
2022-10-05T18:37:54.913Z,17.80
2022-10-05T18:40:50.911Z,17.80
2022-10-05T18:44:00.551Z,17.80
2022-10-05T18:47:14.750Z,17.90
2022-10-05T18:50:47.503Z,17.80
2022-10-05T18:54:27.477Z,17.80
2022-10-05T18:56:55.405Z,17.90
2022-10-05T18:59:53.788Z,18.00
2022-10-05T19:02:44.353Z,18.00
2022-10-05T19:06:08.342Z,18.00
2022-10-05T19:09:22.896Z,17.90
2022-10-05T19:12:12.265Z,17.90
2022-10-05T19:15:16.820Z,17.70
2022-10-05T19:19:29.533Z,17.80
2022-10-05T19:22:42.691Z,17.80
2022-10-05T19:25:34.495Z,17.90
2022-10-05T19:28:52.089Z,17.90
2022-10-05T19:31:50.284Z,17.90
2022-10-05T19:35:23.158Z,17.80
2022-10-05T19:39:01.007Z,17.90
2022-10-05T19:42:51.337Z,17.90
2022-10-05T19:45:39.055Z,17.90
2022-10-05T19:48:47.505Z,17.80
2022-10-05T19:51:47.052Z,17.90
2022-10-05T19:54:30.447Z,17.90
2022-10-05T19:57:02.921Z,17.90
2022-10-05T19:59:34.791Z,17.90
2022-10-05T20:02:04.133Z,17.90
2022-10-05T20:04:52.217Z,17.90
2022-10-05T20:07:22.949Z,17.80
2022-10-05T20:10:23.015Z,17.90
2022-10-05T20:13:04.161Z,17.80
2022-10-05T20:15:55.140Z,17.90
2022-10-05T20:19:08.031Z,17.80
2022-10-05T20:21:59.124Z,17.80
2022-10-05T20:24:32.024Z,17.80
2022-10-05T20:27:09.555Z,17.90
2022-10-05T20:29:45.040Z,18.00
2022-10-05T20:32:18.086Z,17.90
2022-10-05T20:34:49.450Z,17.90
2022-10-05T20:37:20.175Z,17.90
2022-10-05T20:39:51.265Z,17.80
2022-10-05T20:42:23.115Z,17.90
2022-10-05T20:44:55.792Z,18.00
2022-10-05T20:47:26.209Z,18.00
2022-10-05T20:49:54.721Z,18.00
2022-10-05T20:52:23.591Z,18.00
2022-10-05T20:54:53.938Z,17.90
2022-10-05T20:57:24.379Z,17.90
2022-10-05T20:59:52.529Z,18.00
2022-10-05T21:02:20.969Z,18.00
2022-10-05T21:04:49.240Z,17.90
2022-10-05T21:07:23.503Z,17.90
2022-10-05T21:09:51.704Z,17.90
2022-10-05T21:12:19.428Z,17.90
2022-10-05T21:14:48.709Z,17.90
2022-10-05T21:17:16.445Z,17.90
2022-10-05T21:19:44.032Z,18.00
2022-10-05T21:22:11.699Z,18.00
2022-10-05T21:24:42.043Z,18.00
2022-10-05T21:27:10.338Z,17.90
2022-10-05T21:29:40.987Z,18.00
2022-10-05T21:32:11.628Z,18.10
2022-10-05T21:34:41.559Z,18.20
2022-10-05T21:37:09.651Z,18.10
2022-10-05T21:39:37.336Z,18.10
2022-10-05T21:42:05.591Z,18.10
2022-10-05T21:44:33.220Z,18.10
2022-10-05T21:47:01.680Z,18.20
2022-10-05T21:49:29.721Z,18.10
2022-10-05T21:52:00.914Z,18.00
2022-10-05T21:54:28.969Z,18.00
2022-10-05T21:57:00.179Z,17.90
2022-10-05T21:59:34.612Z,17.80
2022-10-05T22:02:02.548Z,17.60
2022-10-05T22:04:30.146Z,17.50
2022-10-05T22:06:58.079Z,17.30
2022-10-05T22:09:26.071Z,17.40
2022-10-05T22:11:54.984Z,17.30
2022-10-05T22:14:22.752Z,17.20
2022-10-05T22:16:50.605Z,17.20
2022-10-05T22:19:20.739Z,17.10
2022-10-05T22:21:48.387Z,16.90
2022-10-05T22:24:16.110Z,16.90
2022-10-05T22:26:51.443Z,16.90
2022-10-05T22:29:21.270Z,16.80
2022-10-05T22:31:49.396Z,16.80
2022-10-05T22:34:18.433Z,16.70
2022-10-05T22:36:47.545Z,16.70
2022-10-05T22:39:18.416Z,16.60
2022-10-05T22:41:46.601Z,16.60
2022-10-05T22:44:14.686Z,16.50
2022-10-05T22:46:44.364Z,16.50
2022-10-05T22:49:12.327Z,16.50
2022-10-05T22:51:40.013Z,16.50
2022-10-05T22:54:07.688Z,16.40
2022-10-05T22:56:35.267Z,16.20
2022-10-05T22:59:02.912Z,15.70
2022-10-05T23:01:31.193Z,15.20
2022-10-05T23:03:58.992Z,15.00
2022-10-05T23:06:27.250Z,14.80
2022-10-05T23:08:55.563Z,14.70
2022-10-05T23:11:28.438Z,14.60
2022-10-05T23:13:57.669Z,14.50
2022-10-05T23:16:29.182Z,14.40
2022-10-05T23:18:57.880Z,14.30
2022-10-05T23:21:30.712Z,14.30
2022-10-05T23:23:58.573Z,14.30
2022-10-05T23:26:27.731Z,14.20
2022-10-05T23:28:55.907Z,14.10
2022-10-05T23:31:33.581Z,14.10
2022-10-05T23:34:01.935Z,14.10
2022-10-05T23:36:33.582Z,14.00
2022-10-05T23:39:01.218Z,14.00
2022-10-05T23:41:28.929Z,14.00
2022-10-05T23:43:56.501Z,13.90
2022-10-05T23:46:24.222Z,13.90
2022-10-05T23:48:53.422Z,13.80
2022-10-05T23:51:21.048Z,13.80
2022-10-05T23:53:49.226Z,13.90
2022-10-05T23:56:16.870Z,13.90
2022-10-05T23:58:45.115Z,13.90
